sensor_id;sensor_type;location;lat;lon;timestamp;P1;durP1;ratioP1;P2;durP2;ratioP2
11735;SDS011;5924;51.398;7.088;2023-05-07T00:01:26;1.77;;;1.77;;
11735;SDS011;5924;51.398;7.088;2023-05-07T00:03:52;1.50;;;1.50;;
11735;SDS011;5924;51.398;7.088;2023-05-07T00:06:18;1.70;;;1.70;;
11735;SDS011;5924;51.398;7.088;2023-05-07T00:08:44;1.90;;;1.80;;
11735;SDS011;5924;51.398;7.088;2023-05-07T00:11:10;1.90;;;1.90;;
11735;SDS011;5924;51.398;7.088;2023-05-07T00:13:35;2.33;;;2.33;;
11735;SDS011;5924;51.398;7.088;2023-05-07T00:16:04;2.03;;;2.03;;
11735;SDS011;5924;51.398;7.088;2023-05-07T00:18:30;1.87;;;1.77;;
11735;SDS011;5924;51.398;7.088;2023-05-07T00:20:55;1.67;;;1.67;;
11735;SDS011;5924;51.398;7.088;2023-05-07T00:23:21;1.80;;;1.80;;
11735;SDS011;5924;51.398;7.088;2023-05-07T00:25:48;2.10;;;2.10;;
11735;SDS011;5924;51.398;7.088;2023-05-07T00:28:13;2.77;;;2.57;;
11735;SDS011;5924;51.398;7.088;2023-05-07T00:30:39;2.20;;;2.20;;
11735;SDS011;5924;51.398;7.088;2023-05-07T00:33:05;1.90;;;1.80;;
11735;SDS011;5924;51.398;7.088;2023-05-07T00:35:30;3.47;;;2.40;;
11735;SDS011;5924;51.398;7.088;2023-05-07T00:37:56;2.17;;;2.10;;
11735;SDS011;5924;51.398;7.088;2023-05-07T00:40:22;1.73;;;1.73;;
11735;SDS011;5924;51.398;7.088;2023-05-07T00:42:48;2.60;;;2.40;;
11735;SDS011;5924;51.398;7.088;2023-05-07T00:45:14;2.37;;;2.37;;
11735;SDS011;5924;51.398;7.088;2023-05-07T00:47:40;2.37;;;2.27;;
11735;SDS011;5924;51.398;7.088;2023-05-07T00:50:06;2.50;;;2.50;;
11735;SDS011;5924;51.398;7.088;2023-05-07T00:52:34;2.37;;;2.27;;
11735;SDS011;5924;51.398;7.088;2023-05-07T00:55:05;2.40;;;2.20;;
11735;SDS011;5924;51.398;7.088;2023-05-07T00:57:37;2.20;;;2.20;;
11735;SDS011;5924;51.398;7.088;2023-05-07T01:00:05;2.57;;;2.47;;
11735;SDS011;5924;51.398;7.088;2023-05-07T01:02:33;2.47;;;2.37;;
11735;SDS011;5924;51.398;7.088;2023-05-07T01:05:00;2.13;;;2.13;;
11735;SDS011;5924;51.398;7.088;2023-05-07T01:07:26;1.83;;;1.83;;
11735;SDS011;5924;51.398;7.088;2023-05-07T01:09:52;2.00;;;2.00;;
11735;SDS011;5924;51.398;7.088;2023-05-07T01:12:19;2.83;;;2.60;;
11735;SDS011;5924;51.398;7.088;2023-05-07T01:14:45;2.00;;;2.00;;
11735;SDS011;5924;51.398;7.088;2023-05-07T01:17:10;2.50;;;2.40;;
11735;SDS011;5924;51.398;7.088;2023-05-07T01:19:36;2.37;;;2.33;;
11735;SDS011;5924;51.398;7.088;2023-05-07T01:22:07;2.40;;;2.40;;
11735;SDS011;5924;51.398;7.088;2023-05-07T01:24:36;2.70;;;2.63;;
11735;SDS011;5924;51.398;7.088;2023-05-07T01:27:02;2.67;;;2.40;;
11735;SDS011;5924;51.398;7.088;2023-05-07T01:29:28;2.63;;;2.63;;
11735;SDS011;5924;51.398;7.088;2023-05-07T01:31:54;2.27;;;2.17;;
11735;SDS011;5924;51.398;7.088;2023-05-07T01:34:25;2.47;;;2.27;;
11735;SDS011;5924;51.398;7.088;2023-05-07T01:36:52;2.00;;;2.00;;
11735;SDS011;5924;51.398;7.088;2023-05-07T01:39:21;1.80;;;1.80;;
11735;SDS011;5924;51.398;7.088;2023-05-07T01:41:49;2.90;;;2.70;;
11735;SDS011;5924;51.398;7.088;2023-05-07T01:44:15;2.33;;;2.33;;
11735;SDS011;5924;51.398;7.088;2023-05-07T01:46:41;2.20;;;2.20;;
11735;SDS011;5924;51.398;7.088;2023-05-07T01:49:07;2.13;;;2.10;;
11735;SDS011;5924;51.398;7.088;2023-05-07T01:51:33;2.67;;;2.33;;
11735;SDS011;5924;51.398;7.088;2023-05-07T01:53:59;2.67;;;2.47;;
11735;SDS011;5924;51.398;7.088;2023-05-07T01:56:25;2.97;;;2.87;;
11735;SDS011;5924;51.398;7.088;2023-05-07T01:58:50;2.63;;;2.63;;
11735;SDS011;5924;51.398;7.088;2023-05-07T02:01:16;2.63;;;2.53;;
11735;SDS011;5924;51.398;7.088;2023-05-07T02:03:43;2.53;;;2.53;;
11735;SDS011;5924;51.398;7.088;2023-05-07T02:06:09;3.20;;;3.10;;
11735;SDS011;5924;51.398;7.088;2023-05-07T02:08:34;3.93;;;3.83;;
11735;SDS011;5924;51.398;7.088;2023-05-07T02:11:00;3.50;;;3.40;;
11735;SDS011;5924;51.398;7.088;2023-05-07T02:13:29;3.43;;;3.33;;
11735;SDS011;5924;51.398;7.088;2023-05-07T02:15:57;3.63;;;3.50;;
11735;SDS011;5924;51.398;7.088;2023-05-07T02:18:22;3.50;;;3.40;;
11735;SDS011;5924;51.398;7.088;2023-05-07T02:20:48;3.33;;;3.23;;
11735;SDS011;5924;51.398;7.088;2023-05-07T02:23:13;3.93;;;3.73;;
11735;SDS011;5924;51.398;7.088;2023-05-07T02:25:39;3.77;;;3.67;;
11735;SDS011;5924;51.398;7.088;2023-05-07T02:28:05;3.43;;;3.20;;
11735;SDS011;5924;51.398;7.088;2023-05-07T02:30:31;3.00;;;3.00;;
11735;SDS011;5924;51.398;7.088;2023-05-07T02:32:57;3.13;;;3.03;;
11735;SDS011;5924;51.398;7.088;2023-05-07T02:35:24;2.90;;;2.70;;
11735;SDS011;5924;51.398;7.088;2023-05-07T02:37:50;3.10;;;3.00;;
11735;SDS011;5924;51.398;7.088;2023-05-07T02:40:16;4.03;;;3.93;;
11735;SDS011;5924;51.398;7.088;2023-05-07T02:42:41;5.60;;;3.60;;
11735;SDS011;5924;51.398;7.088;2023-05-07T02:45:07;3.80;;;3.60;;
11735;SDS011;5924;51.398;7.088;2023-05-07T02:47:33;3.80;;;3.70;;
11735;SDS011;5924;51.398;7.088;2023-05-07T02:49:59;3.67;;;3.47;;
11735;SDS011;5924;51.398;7.088;2023-05-07T02:52:25;4.10;;;3.90;;
11735;SDS011;5924;51.398;7.088;2023-05-07T02:54:50;3.63;;;3.43;;
11735;SDS011;5924;51.398;7.088;2023-05-07T02:57:16;3.33;;;3.23;;
11735;SDS011;5924;51.398;7.088;2023-05-07T02:59:42;3.00;;;2.90;;
11735;SDS011;5924;51.398;7.088;2023-05-07T03:02:07;2.23;;;2.23;;
11735;SDS011;5924;51.398;7.088;2023-05-07T03:04:33;3.10;;;3.00;;
11735;SDS011;5924;51.398;7.088;2023-05-07T03:06:59;3.37;;;2.73;;
11735;SDS011;5924;51.398;7.088;2023-05-07T03:09:25;2.87;;;2.77;;
11735;SDS011;5924;51.398;7.088;2023-05-07T03:11:51;3.20;;;3.10;;
11735;SDS011;5924;51.398;7.088;2023-05-07T03:14:16;4.30;;;3.20;;
11735;SDS011;5924;51.398;7.088;2023-05-07T03:16:42;3.40;;;3.30;;
11735;SDS011;5924;51.398;7.088;2023-05-07T03:19:08;3.37;;;3.27;;
11735;SDS011;5924;51.398;7.088;2023-05-07T03:21:33;5.10;;;3.83;;
11735;SDS011;5924;51.398;7.088;2023-05-07T03:23:59;3.57;;;3.37;;
11735;SDS011;5924;51.398;7.088;2023-05-07T03:26:25;3.17;;;2.97;;
11735;SDS011;5924;51.398;7.088;2023-05-07T03:28:51;3.37;;;3.27;;
11735;SDS011;5924;51.398;7.088;2023-05-07T03:31:17;2.53;;;2.53;;
11735;SDS011;5924;51.398;7.088;2023-05-07T03:36:22;2.60;;;2.50;;
11735;SDS011;5924;51.398;7.088;2023-05-07T03:38:48;2.73;;;2.73;;
11735;SDS011;5924;51.398;7.088;2023-05-07T03:41:14;2.30;;;2.30;;
11735;SDS011;5924;51.398;7.088;2023-05-07T03:43:40;2.77;;;2.67;;
11735;SDS011;5924;51.398;7.088;2023-05-07T03:46:05;2.83;;;2.72;;
11735;SDS011;5924;51.398;7.088;2023-05-07T03:48:31;2.03;;;2.03;;
11735;SDS011;5924;51.398;7.088;2023-05-07T03:50:58;3.10;;;2.90;;
11735;SDS011;5924;51.398;7.088;2023-05-07T03:53:24;2.50;;;2.50;;
11735;SDS011;5924;51.398;7.088;2023-05-07T03:55:50;2.77;;;2.77;;
11735;SDS011;5924;51.398;7.088;2023-05-07T03:58:16;2.90;;;2.80;;
11735;SDS011;5924;51.398;7.088;2023-05-07T04:00:41;3.67;;;3.47;;
11735;SDS011;5924;51.398;7.088;2023-05-07T04:03:07;2.50;;;2.40;;
11735;SDS011;5924;51.398;7.088;2023-05-07T04:05:33;3.40;;;3.30;;
11735;SDS011;5924;51.398;7.088;2023-05-07T04:07:59;3.40;;;3.20;;
11735;SDS011;5924;51.398;7.088;2023-05-07T04:10:25;4.10;;;3.80;;
11735;SDS011;5924;51.398;7.088;2023-05-07T04:12:51;3.80;;;3.70;;
11735;SDS011;5924;51.398;7.088;2023-05-07T04:15:16;3.20;;;3.10;;
11735;SDS011;5924;51.398;7.088;2023-05-07T04:17:42;3.10;;;3.00;;
11735;SDS011;5924;51.398;7.088;2023-05-07T04:20:15;3.80;;;3.50;;
11735;SDS011;5924;51.398;7.088;2023-05-07T04:22:50;3.20;;;3.10;;
11735;SDS011;5924;51.398;7.088;2023-05-07T04:25:16;2.87;;;2.77;;
11735;SDS011;5924;51.398;7.088;2023-05-07T04:27:41;3.70;;;3.30;;
11735;SDS011;5924;51.398;7.088;2023-05-07T04:30:07;3.60;;;3.50;;
11735;SDS011;5924;51.398;7.088;2023-05-07T04:32:33;3.73;;;3.63;;
11735;SDS011;5924;51.398;7.088;2023-05-07T04:35:04;4.17;;;4.07;;
11735;SDS011;5924;51.398;7.088;2023-05-07T04:37:31;3.20;;;3.10;;
11735;SDS011;5924;51.398;7.088;2023-05-07T04:39:57;3.73;;;3.63;;
11735;SDS011;5924;51.398;7.088;2023-05-07T04:42:23;3.83;;;3.73;;
11735;SDS011;5924;51.398;7.088;2023-05-07T04:44:52;3.40;;;3.20;;
11735;SDS011;5924;51.398;7.088;2023-05-07T04:47:18;4.63;;;4.33;;
11735;SDS011;5924;51.398;7.088;2023-05-07T04:49:43;3.60;;;3.50;;
11735;SDS011;5924;51.398;7.088;2023-05-07T04:52:09;3.10;;;3.00;;
11735;SDS011;5924;51.398;7.088;2023-05-07T04:55:01;4.60;;;4.40;;
11735;SDS011;5924;51.398;7.088;2023-05-07T04:57:26;2.70;;;2.60;;
11735;SDS011;5924;51.398;7.088;2023-05-07T04:59:55;5.27;;;4.97;;
11735;SDS011;5924;51.398;7.088;2023-05-07T05:02:33;4.37;;;4.20;;
11735;SDS011;5924;51.398;7.088;2023-05-07T05:04:59;4.70;;;4.30;;
11735;SDS011;5924;51.398;7.088;2023-05-07T05:07:26;4.70;;;4.27;;
11735;SDS011;5924;51.398;7.088;2023-05-07T05:09:52;5.60;;;5.40;;
11735;SDS011;5924;51.398;7.088;2023-05-07T05:12:17;6.93;;;4.97;;
11735;SDS011;5924;51.398;7.088;2023-05-07T05:14:43;5.20;;;4.87;;
11735;SDS011;5924;51.398;7.088;2023-05-07T05:17:08;4.60;;;4.40;;
11735;SDS011;5924;51.398;7.088;2023-05-07T05:19:34;4.10;;;4.00;;
11735;SDS011;5924;51.398;7.088;2023-05-07T05:22:00;3.17;;;3.07;;
11735;SDS011;5924;51.398;7.088;2023-05-07T05:24:26;3.87;;;3.70;;
11735;SDS011;5924;51.398;7.088;2023-05-07T05:26:53;4.07;;;3.87;;
11735;SDS011;5924;51.398;7.088;2023-05-07T05:29:18;3.57;;;3.33;;
11735;SDS011;5924;51.398;7.088;2023-05-07T05:31:44;4.03;;;3.90;;
11735;SDS011;5924;51.398;7.088;2023-05-07T05:34:11;4.53;;;4.00;;
11735;SDS011;5924;51.398;7.088;2023-05-07T05:36:39;4.30;;;4.00;;
11735;SDS011;5924;51.398;7.088;2023-05-07T05:39:08;3.40;;;3.30;;
11735;SDS011;5924;51.398;7.088;2023-05-07T05:41:33;4.40;;;4.20;;
11735;SDS011;5924;51.398;7.088;2023-05-07T05:43:59;4.43;;;4.23;;
11735;SDS011;5924;51.398;7.088;2023-05-07T05:46:24;4.20;;;3.90;;
11735;SDS011;5924;51.398;7.088;2023-05-07T05:48:50;4.57;;;4.27;;
11735;SDS011;5924;51.398;7.088;2023-05-07T05:51:16;4.07;;;3.97;;
11735;SDS011;5924;51.398;7.088;2023-05-07T05:53:41;4.40;;;4.20;;
11735;SDS011;5924;51.398;7.088;2023-05-07T05:56:07;3.50;;;3.30;;
11735;SDS011;5924;51.398;7.088;2023-05-07T05:58:38;4.70;;;4.30;;
11735;SDS011;5924;51.398;7.088;2023-05-07T06:01:04;3.87;;;3.73;;
11735;SDS011;5924;51.398;7.088;2023-05-07T06:03:30;3.47;;;3.37;;
11735;SDS011;5924;51.398;7.088;2023-05-07T06:05:59;3.53;;;3.43;;
11735;SDS011;5924;51.398;7.088;2023-05-07T06:08:30;3.60;;;3.50;;
11735;SDS011;5924;51.398;7.088;2023-05-07T06:10:56;2.97;;;2.88;;
11735;SDS011;5924;51.398;7.088;2023-05-07T06:13:23;5.63;;;5.10;;
11735;SDS011;5924;51.398;7.088;2023-05-07T06:15:49;4.77;;;4.57;;
11735;SDS011;5924;51.398;7.088;2023-05-07T06:18:14;5.70;;;5.40;;
11735;SDS011;5924;51.398;7.088;2023-05-07T06:20:40;9.20;;;4.97;;
11735;SDS011;5924;51.398;7.088;2023-05-07T06:23:05;8.47;;;6.10;;
11735;SDS011;5924;51.398;7.088;2023-05-07T06:25:34;5.30;;;5.00;;
11735;SDS011;5924;51.398;7.088;2023-05-07T06:28:05;3.93;;;3.70;;
11735;SDS011;5924;51.398;7.088;2023-05-07T06:30:33;4.43;;;4.10;;
11735;SDS011;5924;51.398;7.088;2023-05-07T06:32:59;6.30;;;5.70;;
11735;SDS011;5924;51.398;7.088;2023-05-07T06:35:24;4.33;;;4.23;;
11735;SDS011;5924;51.398;7.088;2023-05-07T06:37:50;6.70;;;6.10;;
11735;SDS011;5924;51.398;7.088;2023-05-07T06:40:15;5.50;;;5.00;;
11735;SDS011;5924;51.398;7.088;2023-05-07T06:42:41;6.07;;;5.67;;
11735;SDS011;5924;51.398;7.088;2023-05-07T06:45:12;4.70;;;4.50;;
11735;SDS011;5924;51.398;7.088;2023-05-07T06:47:38;4.83;;;4.63;;
11735;SDS011;5924;51.398;7.088;2023-05-07T06:50:03;5.13;;;4.80;;
11735;SDS011;5924;51.398;7.088;2023-05-07T06:52:32;5.20;;;4.87;;
11735;SDS011;5924;51.398;7.088;2023-05-07T06:54:58;13.37;;;5.20;;
11735;SDS011;5924;51.398;7.088;2023-05-07T06:57:24;4.70;;;4.37;;
11735;SDS011;5924;51.398;7.088;2023-05-07T06:59:53;5.43;;;4.93;;
11735;SDS011;5924;51.398;7.088;2023-05-07T07:02:21;10.43;;;5.00;;
11735;SDS011;5924;51.398;7.088;2023-05-07T07:04:50;5.20;;;4.80;;
11735;SDS011;5924;51.398;7.088;2023-05-07T07:07:18;5.43;;;5.00;;
11735;SDS011;5924;51.398;7.088;2023-05-07T07:09:44;4.37;;;4.20;;
11735;SDS011;5924;51.398;7.088;2023-05-07T07:12:10;4.00;;;3.90;;
11735;SDS011;5924;51.398;7.088;2023-05-07T07:14:35;3.70;;;3.60;;
11735;SDS011;5924;51.398;7.088;2023-05-07T07:17:01;4.30;;;4.20;;
11735;SDS011;5924;51.398;7.088;2023-05-07T07:19:26;4.47;;;4.20;;
11735;SDS011;5924;51.398;7.088;2023-05-07T07:21:55;4.50;;;4.20;;
11735;SDS011;5924;51.398;7.088;2023-05-07T07:24:21;4.22;;;4.03;;
11735;SDS011;5924;51.398;7.088;2023-05-07T07:26:55;4.60;;;4.30;;
11735;SDS011;5924;51.398;7.088;2023-05-07T07:29:21;3.70;;;3.60;;
11735;SDS011;5924;51.398;7.088;2023-05-07T07:31:48;3.92;;;3.72;;
11735;SDS011;5924;51.398;7.088;2023-05-07T07:34:14;3.47;;;3.22;;
11735;SDS011;5924;51.398;7.088;2023-05-07T07:36:40;4.03;;;3.70;;
11735;SDS011;5924;51.398;7.088;2023-05-07T07:39:15;3.20;;;3.00;;
11735;SDS011;5924;51.398;7.088;2023-05-07T07:41:40;3.93;;;3.80;;
11735;SDS011;5924;51.398;7.088;2023-05-07T07:44:06;3.83;;;3.50;;
11735;SDS011;5924;51.398;7.088;2023-05-07T07:46:32;6.43;;;3.38;;
11735;SDS011;5924;51.398;7.088;2023-05-07T07:49:01;3.63;;;3.33;;
11735;SDS011;5924;51.398;7.088;2023-05-07T07:51:26;2.90;;;2.80;;
11735;SDS011;5924;51.398;7.088;2023-05-07T07:53:55;5.53;;;3.37;;
11735;SDS011;5924;51.398;7.088;2023-05-07T07:56:22;3.10;;;3.00;;
11735;SDS011;5924;51.398;7.088;2023-05-07T07:58:51;4.17;;;3.10;;
11735;SDS011;5924;51.398;7.088;2023-05-07T08:01:32;3.27;;;3.07;;
11735;SDS011;5924;51.398;7.088;2023-05-07T08:04:00;3.53;;;3.30;;
11735;SDS011;5924;51.398;7.088;2023-05-07T08:06:28;6.63;;;3.40;;
11735;SDS011;5924;51.398;7.088;2023-05-07T08:08:54;3.00;;;2.80;;
11735;SDS011;5924;51.398;7.088;2023-05-07T08:11:28;4.43;;;2.70;;
11735;SDS011;5924;51.398;7.088;2023-05-07T08:13:59;2.50;;;2.40;;
11735;SDS011;5924;51.398;7.088;2023-05-07T08:16:34;2.70;;;2.50;;
11735;SDS011;5924;51.398;7.088;2023-05-07T08:19:02;3.17;;;3.03;;
11735;SDS011;5924;51.398;7.088;2023-05-07T08:21:28;3.17;;;2.87;;
11735;SDS011;5924;51.398;7.088;2023-05-07T08:23:54;2.90;;;2.80;;
11735;SDS011;5924;51.398;7.088;2023-05-07T08:26:19;3.03;;;2.93;;
11735;SDS011;5924;51.398;7.088;2023-05-07T08:28:45;2.53;;;2.53;;
11735;SDS011;5924;51.398;7.088;2023-05-07T08:31:16;2.50;;;2.50;;
11735;SDS011;5924;51.398;7.088;2023-05-07T08:33:45;2.50;;;2.40;;
11735;SDS011;5924;51.398;7.088;2023-05-07T08:36:15;2.53;;;2.43;;
11735;SDS011;5924;51.398;7.088;2023-05-07T08:38:44;2.63;;;2.43;;
11735;SDS011;5924;51.398;7.088;2023-05-07T08:41:24;2.60;;;2.40;;
11735;SDS011;5924;51.398;7.088;2023-05-07T08:43:50;3.10;;;2.90;;
11735;SDS011;5924;51.398;7.088;2023-05-07T08:46:17;3.10;;;2.37;;
11735;SDS011;5924;51.398;7.088;2023-05-07T08:48:52;2.90;;;2.70;;
11735;SDS011;5924;51.398;7.088;2023-05-07T08:51:20;3.13;;;2.87;;
11735;SDS011;5924;51.398;7.088;2023-05-07T08:53:47;3.43;;;2.30;;
11735;SDS011;5924;51.398;7.088;2023-05-07T08:56:14;2.17;;;2.07;;
11735;SDS011;5924;51.398;7.088;2023-05-07T08:58:41;2.40;;;2.30;;
11735;SDS011;5924;51.398;7.088;2023-05-07T09:01:10;1.92;;;1.92;;
11735;SDS011;5924;51.398;7.088;2023-05-07T09:03:39;2.50;;;2.40;;
11735;SDS011;5924;51.398;7.088;2023-05-07T09:06:05;1.97;;;1.87;;
11735;SDS011;5924;51.398;7.088;2023-05-07T09:08:32;2.10;;;2.03;;
11735;SDS011;5924;51.398;7.088;2023-05-07T09:11:01;2.13;;;2.13;;
11735;SDS011;5924;51.398;7.088;2023-05-07T09:13:57;1.73;;;1.73;;
11735;SDS011;5924;51.398;7.088;2023-05-07T09:16:26;2.10;;;2.00;;
11735;SDS011;5924;51.398;7.088;2023-05-07T09:18:52;1.93;;;1.93;;
11735;SDS011;5924;51.398;7.088;2023-05-07T09:21:19;2.10;;;1.83;;
11735;SDS011;5924;51.398;7.088;2023-05-07T09:23:50;2.23;;;2.13;;
11735;SDS011;5924;51.398;7.088;2023-05-07T09:26:17;1.87;;;1.87;;
11735;SDS011;5924;51.398;7.088;2023-05-07T09:28:43;3.03;;;2.75;;
11735;SDS011;5924;51.398;7.088;2023-05-07T09:31:23;1.80;;;1.70;;
11735;SDS011;5924;51.398;7.088;2023-05-07T09:33:50;1.63;;;1.63;;
11735;SDS011;5924;51.398;7.088;2023-05-07T09:36:17;5.23;;;1.87;;
11735;SDS011;5924;51.398;7.088;2023-05-07T09:38:56;1.40;;;1.40;;
11735;SDS011;5924;51.398;7.088;2023-05-07T09:41:25;1.57;;;1.50;;
11735;SDS011;5924;51.398;7.088;2023-05-07T09:43:55;2.53;;;2.43;;
11735;SDS011;5924;51.398;7.088;2023-05-07T09:46:24;1.73;;;1.63;;
11735;SDS011;5924;51.398;7.088;2023-05-07T09:49:03;1.60;;;1.50;;
11735;SDS011;5924;51.398;7.088;2023-05-07T09:51:47;2.00;;;1.30;;
11735;SDS011;5924;51.398;7.088;2023-05-07T09:54:15;1.30;;;1.30;;
11735;SDS011;5924;51.398;7.088;2023-05-07T09:56:42;1.23;;;1.07;;
11735;SDS011;5924;51.398;7.088;2023-05-07T09:59:12;1.00;;;0.90;;
11735;SDS011;5924;51.398;7.088;2023-05-07T10:01:48;2.10;;;1.70;;
11735;SDS011;5924;51.398;7.088;2023-05-07T10:04:24;1.83;;;1.83;;
11735;SDS011;5924;51.398;7.088;2023-05-07T10:06:53;1.67;;;1.57;;
11735;SDS011;5924;51.398;7.088;2023-05-07T10:09:20;2.20;;;1.90;;
11735;SDS011;5924;51.398;7.088;2023-05-07T10:11:50;1.70;;;1.60;;
11735;SDS011;5924;51.398;7.088;2023-05-07T10:14:16;1.60;;;1.60;;
11735;SDS011;5924;51.398;7.088;2023-05-07T10:16:46;3.43;;;1.60;;
11735;SDS011;5924;51.398;7.088;2023-05-07T10:19:13;1.60;;;1.60;;
11735;SDS011;5924;51.398;7.088;2023-05-07T10:21:43;2.03;;;1.80;;
11735;SDS011;5924;51.398;7.088;2023-05-07T10:24:25;1.85;;;1.75;;
11735;SDS011;5924;51.398;7.088;2023-05-07T10:26:55;1.70;;;1.60;;
11735;SDS011;5924;51.398;7.088;2023-05-07T10:29:33;1.50;;;1.50;;
11735;SDS011;5924;51.398;7.088;2023-05-07T10:34:56;2.13;;;2.13;;
11735;SDS011;5924;51.398;7.088;2023-05-07T10:37:31;1.90;;;1.80;;
11735;SDS011;5924;51.398;7.088;2023-05-07T10:40:06;2.27;;;2.27;;
11735;SDS011;5924;51.398;7.088;2023-05-07T10:42:36;2.20;;;2.20;;
11735;SDS011;5924;51.398;7.088;2023-05-07T10:45:24;2.60;;;2.13;;
11735;SDS011;5924;51.398;7.088;2023-05-07T10:50:34;2.23;;;2.20;;
11735;SDS011;5924;51.398;7.088;2023-05-07T10:58:54;2.40;;;2.30;;
11735;SDS011;5924;51.398;7.088;2023-05-07T11:01:49;2.57;;;2.40;;
11735;SDS011;5924;51.398;7.088;2023-05-07T11:04:17;2.70;;;2.60;;
11735;SDS011;5924;51.398;7.088;2023-05-07T11:15:04;3.33;;;3.13;;
11735;SDS011;5924;51.398;7.088;2023-05-07T11:17:32;2.90;;;2.80;;
11735;SDS011;5924;51.398;7.088;2023-05-07T11:20:00;2.13;;;2.05;;
11735;SDS011;5924;51.398;7.088;2023-05-07T11:24:55;2.33;;;2.23;;
11735;SDS011;5924;51.398;7.088;2023-05-07T11:27:28;2.20;;;2.10;;
11735;SDS011;5924;51.398;7.088;2023-05-07T11:29:54;2.20;;;2.20;;
11735;SDS011;5924;51.398;7.088;2023-05-07T11:32:24;2.80;;;2.63;;
11735;SDS011;5924;51.398;7.088;2023-05-07T11:34:53;2.33;;;2.20;;
11735;SDS011;5924;51.398;7.088;2023-05-07T11:37:20;7.63;;;2.47;;
11735;SDS011;5924;51.398;7.088;2023-05-07T11:40:02;3.05;;;2.95;;
11735;SDS011;5924;51.398;7.088;2023-05-07T11:42:33;2.70;;;2.50;;
11735;SDS011;5924;51.398;7.088;2023-05-07T11:45:24;2.57;;;2.57;;
11735;SDS011;5924;51.398;7.088;2023-05-07T11:47:50;3.03;;;2.83;;
11735;SDS011;5924;51.398;7.088;2023-05-07T11:50:16;2.67;;;2.57;;
11735;SDS011;5924;51.398;7.088;2023-05-07T11:52:49;4.70;;;2.43;;
11735;SDS011;5924;51.398;7.088;2023-05-07T11:55:17;2.50;;;2.40;;
11735;SDS011;5924;51.398;7.088;2023-05-07T11:57:43;2.33;;;2.33;;
11735;SDS011;5924;51.398;7.088;2023-05-07T12:00:10;2.30;;;2.30;;
11735;SDS011;5924;51.398;7.088;2023-05-07T12:02:36;2.93;;;2.73;;
11735;SDS011;5924;51.398;7.088;2023-05-07T12:05:01;2.53;;;2.47;;
11735;SDS011;5924;51.398;7.088;2023-05-07T12:07:27;3.10;;;3.00;;
11735;SDS011;5924;51.398;7.088;2023-05-07T12:09:53;3.13;;;3.03;;
11735;SDS011;5924;51.398;7.088;2023-05-07T12:12:19;3.50;;;3.40;;
11735;SDS011;5924;51.398;7.088;2023-05-07T12:14:45;3.63;;;3.53;;
11735;SDS011;5924;51.398;7.088;2023-05-07T12:17:11;4.00;;;3.60;;
11735;SDS011;5924;51.398;7.088;2023-05-07T12:19:39;3.57;;;3.37;;
11735;SDS011;5924;51.398;7.088;2023-05-07T12:22:09;3.30;;;3.17;;
11735;SDS011;5924;51.398;7.088;2023-05-07T12:24:45;3.60;;;3.47;;
11735;SDS011;5924;51.398;7.088;2023-05-07T12:27:10;3.78;;;3.58;;
11735;SDS011;5924;51.398;7.088;2023-05-07T12:29:36;3.70;;;3.50;;
11735;SDS011;5924;51.398;7.088;2023-05-07T12:32:05;3.20;;;3.10;;
11735;SDS011;5924;51.398;7.088;2023-05-07T12:34:31;4.15;;;3.65;;
11735;SDS011;5924;51.398;7.088;2023-05-07T12:36:57;3.57;;;3.47;;
11735;SDS011;5924;51.398;7.088;2023-05-07T12:39:28;3.43;;;3.30;;
11735;SDS011;5924;51.398;7.088;2023-05-07T12:44:23;3.70;;;3.60;;
11735;SDS011;5924;51.398;7.088;2023-05-07T12:46:51;4.93;;;4.63;;
11735;SDS011;5924;51.398;7.088;2023-05-07T12:49:16;6.33;;;4.70;;
11735;SDS011;5924;51.398;7.088;2023-05-07T12:51:46;4.07;;;3.77;;
11735;SDS011;5924;51.398;7.088;2023-05-07T12:54:13;3.27;;;3.17;;
11735;SDS011;5924;51.398;7.088;2023-05-07T12:56:39;3.30;;;3.20;;
11735;SDS011;5924;51.398;7.088;2023-05-07T12:59:05;3.00;;;2.90;;
11735;SDS011;5924;51.398;7.088;2023-05-07T13:01:31;3.50;;;3.30;;
11735;SDS011;5924;51.398;7.088;2023-05-07T13:04:05;3.30;;;3.00;;
11735;SDS011;5924;51.398;7.088;2023-05-07T13:06:30;3.17;;;3.07;;
11735;SDS011;5924;51.398;7.088;2023-05-07T13:08:56;2.83;;;2.83;;
11735;SDS011;5924;51.398;7.088;2023-05-07T13:11:22;3.20;;;3.10;;
11735;SDS011;5924;51.398;7.088;2023-05-07T13:13:48;4.07;;;3.63;;
11735;SDS011;5924;51.398;7.088;2023-05-07T13:16:13;4.07;;;3.87;;
11735;SDS011;5924;51.398;7.088;2023-05-07T13:18:39;3.70;;;3.50;;
11735;SDS011;5924;51.398;7.088;2023-05-07T13:21:05;4.27;;;3.93;;
11735;SDS011;5924;51.398;7.088;2023-05-07T13:23:31;4.67;;;4.37;;
11735;SDS011;5924;51.398;7.088;2023-05-07T13:25:57;3.70;;;3.50;;
11735;SDS011;5924;51.398;7.088;2023-05-07T13:28:23;4.70;;;4.50;;
11735;SDS011;5924;51.398;7.088;2023-05-07T13:30:49;4.33;;;4.13;;
11735;SDS011;5924;51.398;7.088;2023-05-07T13:33:16;5.00;;;4.80;;
11735;SDS011;5924;51.398;7.088;2023-05-07T13:35:42;4.67;;;4.47;;
11735;SDS011;5924;51.398;7.088;2023-05-07T13:38:08;4.78;;;4.50;;
11735;SDS011;5924;51.398;7.088;2023-05-07T13:40:33;4.60;;;4.30;;
11735;SDS011;5924;51.398;7.088;2023-05-07T13:42:59;4.97;;;4.53;;
11735;SDS011;5924;51.398;7.088;2023-05-07T13:45:29;5.20;;;4.90;;
11735;SDS011;5924;51.398;7.088;2023-05-07T13:47:55;4.80;;;4.50;;
11735;SDS011;5924;51.398;7.088;2023-05-07T13:50:21;4.70;;;4.50;;
11735;SDS011;5924;51.398;7.088;2023-05-07T13:52:47;5.18;;;4.88;;
11735;SDS011;5924;51.398;7.088;2023-05-07T13:55:18;5.30;;;5.00;;
11735;SDS011;5924;51.398;7.088;2023-05-07T13:57:46;4.50;;;4.30;;
11735;SDS011;5924;51.398;7.088;2023-05-07T14:00:12;5.90;;;5.30;;
11735;SDS011;5924;51.398;7.088;2023-05-07T14:02:39;5.80;;;5.50;;
11735;SDS011;5924;51.398;7.088;2023-05-07T14:05:05;4.73;;;4.43;;
11735;SDS011;5924;51.398;7.088;2023-05-07T14:07:31;5.50;;;5.10;;
11735;SDS011;5924;51.398;7.088;2023-05-07T14:09:57;4.73;;;4.50;;
11735;SDS011;5924;51.398;7.088;2023-05-07T14:12:22;4.80;;;4.60;;
11735;SDS011;5924;51.398;7.088;2023-05-07T14:14:48;5.00;;;4.80;;
11735;SDS011;5924;51.398;7.088;2023-05-07T14:17:15;5.70;;;5.22;;
11735;SDS011;5924;51.398;7.088;2023-05-07T14:19:42;4.90;;;4.60;;
11735;SDS011;5924;51.398;7.088;2023-05-07T14:22:08;5.27;;;4.30;;
11735;SDS011;5924;51.398;7.088;2023-05-07T14:24:33;6.10;;;5.60;;
11735;SDS011;5924;51.398;7.088;2023-05-07T14:26:59;5.10;;;4.80;;
11735;SDS011;5924;51.398;7.088;2023-05-07T14:29:25;4.37;;;4.07;;
11735;SDS011;5924;51.398;7.088;2023-05-07T14:31:50;4.90;;;4.68;;
11735;SDS011;5924;51.398;7.088;2023-05-07T14:34:16;4.73;;;4.33;;
11735;SDS011;5924;51.398;7.088;2023-05-07T14:36:42;5.43;;;5.10;;
11735;SDS011;5924;51.398;7.088;2023-05-07T14:39:08;6.00;;;5.30;;
11735;SDS011;5924;51.398;7.088;2023-05-07T14:41:34;5.47;;;5.10;;
11735;SDS011;5924;51.398;7.088;2023-05-07T14:44:00;6.03;;;5.60;;
11735;SDS011;5924;51.398;7.088;2023-05-07T14:46:35;5.88;;;5.38;;
11735;SDS011;5924;51.398;7.088;2023-05-07T14:49:02;5.70;;;5.30;;
11735;SDS011;5924;51.398;7.088;2023-05-07T14:51:33;7.43;;;6.83;;
11735;SDS011;5924;51.398;7.088;2023-05-07T14:54:02;5.50;;;5.17;;
11735;SDS011;5924;51.398;7.088;2023-05-07T14:56:28;5.97;;;5.50;;
11735;SDS011;5924;51.398;7.088;2023-05-07T14:58:57;6.53;;;6.00;;
11735;SDS011;5924;51.398;7.088;2023-05-07T15:01:34;12.00;;;7.00;;
11735;SDS011;5924;51.398;7.088;2023-05-07T15:04:01;9.30;;;6.80;;
11735;SDS011;5924;51.398;7.088;2023-05-07T15:06:28;9.93;;;7.73;;
11735;SDS011;5924;51.398;7.088;2023-05-07T15:08:54;7.67;;;7.00;;
11735;SDS011;5924;51.398;7.088;2023-05-07T15:11:20;7.10;;;6.50;;
11735;SDS011;5924;51.398;7.088;2023-05-07T15:13:45;8.70;;;7.90;;
11735;SDS011;5924;51.398;7.088;2023-05-07T15:16:11;9.00;;;8.07;;
11735;SDS011;5924;51.398;7.088;2023-05-07T15:18:36;10.40;;;8.30;;
11735;SDS011;5924;51.398;7.088;2023-05-07T15:21:02;7.60;;;6.70;;
11735;SDS011;5924;51.398;7.088;2023-05-07T15:23:28;10.23;;;8.90;;
11735;SDS011;5924;51.398;7.088;2023-05-07T15:25:54;9.57;;;8.48;;
11735;SDS011;5924;51.398;7.088;2023-05-07T15:28:19;6.17;;;5.70;;
11735;SDS011;5924;51.398;7.088;2023-05-07T15:30:45;7.50;;;6.77;;